Time;durP1;ratioP1;P1;durP2;ratioP2;P2;SDS_P1;SDS_P2;PMS_P1;PMS_P2;Temp;Humidity;BMP_temperature;BMP_pressure;BME280_temperature;BME280_humidity;BME280_pressure;Samples;Min_cycle;Max_cycle;Signal;HPM_P1;HPM_P2
2022/04/15 00:00:17;;;;;;;8.73;7.92;;;;;;;5.05;100.00;101311.80;1745012;82;21054;-81
2022/04/15 00:02:46;;;;;;;9.23;8.35;;;;;;;5.02;100.00;101312.77;1744762;82;21591;-80
2022/04/15 00:05:58;;;;;;;9.28;8.35;;;;;;;5.00;100.00;101313.30;1744615;81;21596;-79
2022/04/15 00:07:44;;;;;;;9.55;8.55;;;;;;;5.01;100.00;101315.41;1739981;81;21013;-81
2022/04/15 00:10:13;;;;;;;8.85;7.92;;;;;;;4.99;100.00;101312.91;1761355;81;21064;-80
2022/04/15 00:12:42;;;;;;;9.53;8.50;;;;;;;4.98;100.00;101315.53;1748702;81;21057;-83
2022/04/15 00:15:10;;;;;;;8.00;7.20;;;;;;;4.96;100.00;101314.77;1718578;83;21273;-82
2022/04/15 00:17:37;;;;;;;9.15;8.25;;;;;;;4.94;100.00;101313.98;1712219;83;21026;-81
2022/04/15 00:20:07;;;;;;;9.68;8.68;;;;;;;4.83;100.00;101311.84;1710804;82;21074;-79
2022/04/15 00:22:36;;;;;;;9.65;8.58;;;;;;;4.64;100.00;101305.28;1713006;83;21027;-79
2022/04/15 00:25:07;;;;;;;8.55;7.72;;;;;;;4.47;100.00;101302.05;1692996;84;21741;-80
2022/04/15 00:27:34;;;;;;;9.43;8.10;;;;;;;4.39;100.00;101302.36;1755013;80;21756;-80
2022/04/15 00:30:10;;;;;;;8.58;7.67;;;;;;;4.33;100.00;101300.84;1720198;82;21569;-80
2022/04/15 00:32:43;;;;;;;8.43;7.60;;;;;;;4.29;100.00;101305.71;1710670;82;21552;-83
2022/04/15 00:35:13;;;;;;;8.85;8.00;;;;;;;4.24;100.00;101313.65;1732592;81;21096;-80
2022/04/15 00:37:41;;;;;;;8.10;7.28;;;;;;;4.24;100.00;101312.79;1696184;83;21634;-79
2022/04/15 00:40:11;;;;;;;8.80;7.90;;;;;;;4.24;100.00;101312.79;1713440;83;21099;-80
2022/04/15 00:42:38;;;;;;;9.23;7.95;;;;;;;4.23;100.00;101309.38;1700178;84;21650;-81
2022/04/15 00:45:09;;;;;;;8.15;7.45;;;;;;;4.21;100.00;101317.62;1697701;84;21082;-80
2022/04/15 00:47:53;;;;;;;7.85;7.15;;;;;;;4.16;100.00;101317.39;1680111;84;21042;-83
2022/04/15 00:50:28;;;;;;;8.25;7.55;;;;;;;4.14;100.00;101311.44;1704878;84;21118;-80
2022/04/15 00:53:06;;;;;;;9.20;8.30;;;;;;;4.13;100.00;101311.91;1702429;84;21992;-81
2022/04/15 00:55:32;;;;;;;8.20;7.40;;;;;;;4.08;100.00;101315.94;1706327;83;21152;-79
2022/04/15 00:58:02;;;;;;;7.92;7.10;;;;;;;4.01;100.00;101313.62;1703190;83;21071;-80
2022/04/15 01:00:34;;;;;;;8.05;7.35;;;;;;;3.93;100.00;101320.36;1684061;84;21031;-80
2022/04/15 01:03:05;;;;;;;7.70;7.00;;;;;;;3.86;100.00;101318.91;1702132;84;21027;-79
2022/04/15 01:05:35;;;;;;;7.42;6.72;;;;;;;3.74;100.00;101314.56;1701961;84;21283;-80
2022/04/15 01:08:07;;;;;;;8.48;7.67;;;;;;;3.63;100.00;101315.41;1722433;82;21015;-79
2022/04/15 01:10:38;;;;;;;8.75;7.95;;;;;;;3.58;100.00;101325.01;1682063;83;21089;-80
2022/04/15 01:13:08;;;;;;;8.40;7.65;;;;;;;3.55;100.00;101321.27;1703334;82;21165;-79
2022/04/15 01:15:36;;;;;;;8.93;8.05;;;;;;;3.50;100.00;101320.14;1697428;84;21035;-82
2022/04/15 01:18:06;;;;;;;8.98;8.18;;;;;;;3.44;100.00;101325.50;1695406;83;21172;-81
2022/04/15 01:20:35;;;;;;;9.53;8.63;;;;;;;3.38;100.00;101318.82;1692775;84;21107;-80
2022/04/15 01:23:09;;;;;;;9.28;8.45;;;;;;;3.31;100.00;101319.92;1701990;84;21061;-84
2022/04/15 01:25:37;;;;;;;10.35;9.35;;;;;;;3.25;100.00;101317.53;1734367;82;21585;-79
2022/04/15 01:28:07;;;;;;;10.58;9.68;;;;;;;3.23;100.00;101319.34;1701074;82;21086;-80
2022/04/15 01:30:35;;;;;;;11.35;10.28;;;;;;;3.21;100.00;101320.65;1734135;82;21931;-80
2022/04/15 01:33:03;;;;;;;12.10;11.00;;;;;;;3.19;100.00;101321.17;1733795;82;21020;-79
2022/04/15 01:35:31;;;;;;;11.85;10.65;;;;;;;3.13;100.00;101327.35;1733990;82;21058;-80
2022/04/15 01:37:59;;;;;;;13.53;12.20;;;;;;;3.08;100.00;101326.67;1733897;82;21644;-79
2022/04/15 01:40:29;;;;;;;14.43;13.05;;;;;;;3.04;100.00;101321.21;1734035;82;21557;-81
2022/04/15 01:42:57;;;;;;;14.03;12.68;;;;;;;2.99;100.00;101320.07;1733791;82;21276;-81
2022/04/15 01:45:25;;;;;;;14.07;12.75;;;;;;;2.92;100.00;101317.77;1733759;82;20975;-79
2022/04/15 01:47:54;;;;;;;14.25;12.85;;;;;;;2.90;100.00;101320.81;1737490;82;21027;-80
2022/04/15 01:50:23;;;;;;;13.53;12.33;;;;;;;2.86;100.00;101317.93;1733624;82;21013;-79
2022/04/15 01:52:53;;;;;;;14.70;13.25;;;;;;;2.86;100.00;101320.50;1727012;82;21002;-79
2022/04/15 01:55:23;;;;;;;14.73;13.32;;;;;;;2.82;100.00;101314.19;1731256;82;21893;-81
2022/04/15 01:57:55;;;;;;;14.47;13.20;;;;;;;2.78;100.00;101311.30;1741251;82;21533;-79
2022/04/15 02:00:23;;;;;;;14.15;12.85;;;;;;;2.73;100.00;101309.33;1746254;81;21045;-80
2022/04/15 02:02:53;;;;;;;13.10;11.90;;;;;;;2.70;100.00;101304.27;1743884;82;21089;-80
2022/04/15 02:05:20;;;;;;;13.53;12.33;;;;;;;2.70;100.00;101308.58;1747747;82;21094;-79
2022/04/15 02:07:49;;;;;;;13.98;12.68;;;;;;;2.70;100.00;101307.30;1741821;82;21374;-78
2022/04/15 02:10:18;;;;;;;13.18;11.97;;;;;;;2.70;100.00;101310.70;1727486;81;21348;-80
2022/04/15 02:12:48;;;;;;;14.33;12.93;;;;;;;2.70;100.00;101310.70;1726458;81;20996;-79
2022/04/15 02:15:16;;;;;;;11.97;10.88;;;;;;;2.73;100.00;101308.04;1713099;83;21314;-80
2022/04/15 02:17:45;;;;;;;12.70;11.50;;;;;;;2.75;100.00;101313.98;1698835;83;21028;-80
2022/04/15 02:20:13;;;;;;;11.70;10.58;;;;;;;2.77;100.00;101310.89;1675923;84;21937;-79
2022/04/15 02:22:42;;;;;;;11.88;10.78;;;;;;;2.81;100.00;101312.93;1701371;83;21133;-80
2022/04/15 02:25:10;;;;;;;12.13;11.03;;;;;;;2.86;100.00;101310.21;1716008;83;21081;-79
2022/04/15 02:27:37;;;;;;;11.38;10.32;;;;;;;2.91;100.00;101314.33;1691362;83;21065;-80
2022/04/15 02:30:05;;;;;;;11.97;10.88;;;;;;;2.96;100.00;101318.05;1703675;82;21103;-80
2022/04/15 02:32:36;;;;;;;11.83;10.72;;;;;;;3.02;100.00;101324.27;1731499;81;21815;-80
2022/04/15 02:35:04;;;;;;;11.88;10.88;;;;;;;3.08;100.00;101324.53;1695733;84;21049;-82
2022/04/15 02:37:32;;;;;;;11.38;10.38;;;;;;;3.12;100.00;101326.95;1685768;84;21535;-79
2022/04/15 02:40:03;;;;;;;12.73;11.53;;;;;;;3.16;100.00;101328.98;1719712;81;21590;-80
2022/04/15 02:42:31;;;;;;;;;;;;;;;3.18;100.00;101330.20;1762408;81;21065;-79
2022/04/15 02:45:00;;;;;;;11.38;10.20;;;;;;;3.16;100.00;101329.81;1759867;81;21182;-79
2022/04/15 02:47:30;;;;;;;9.88;8.98;;;;;;;3.18;100.00;101331.06;1759152;81;21024;-79
2022/04/15 02:49:57;;;;;;;10.78;9.78;;;;;;;3.19;100.00;101341.77;1728234;81;21057;-79
2022/04/15 02:52:25;;;;;;;11.10;10.10;;;;;;;3.14;100.00;101352.63;1695659;83;21016;-80
2022/04/15 02:54:53;;;;;;;11.20;10.13;;;;;;;3.10;100.00;101345.91;1751862;81;21501;-79
2022/04/15 02:57:21;;;;;;;10.65;9.58;;;;;;;3.12;100.00;101353.15;1751764;81;22525;-79
2022/04/15 02:59:49;;;;;;;10.85;9.85;;;;;;;3.14;100.00;101352.63;1717835;82;21601;-79
2022/04/15 03:02:18;;;;;;;10.35;9.45;;;;;;;3.16;100.00;101354.26;1780883;80;21022;-79
2022/04/15 03:04:46;;;;;;;12.68;11.38;;;;;;;3.22;100.00;101361.41;1780934;80;21578;-79
2022/04/15 03:07:13;;;;;;;11.70;10.53;;;;;;;3.25;100.00;101360.00;1780069;80;21574;-81
2022/04/15 03:09:43;;;;;;;12.10;10.98;;;;;;;3.31;100.00;101362.40;1770732;80;21086;-81
2022/04/15 03:12:11;;;;;;;12.00;10.80;;;;;;;3.37;100.00;101360.05;1735934;79;21030;-82
2022/04/15 03:14:39;;;;;;;11.80;10.63;;;;;;;3.43;100.00;101361.16;1729270;82;21043;-79
2022/04/15 03:17:06;;;;;;;11.73;10.55;;;;;;;3.50;100.00;101361.77;1711728;83;21099;-79
2022/04/15 03:19:36;;;;;;;12.60;11.43;;;;;;;3.58;100.00;101367.50;1722832;82;21097;-80
2022/04/15 03:22:05;;;;;;;14.10;12.60;;;;;;;3.66;100.00;101371.12;1727689;82;21086;-82
2022/04/15 03:24:33;;;;;;;13.38;12.10;;;;;;;3.74;100.00;101374.28;1683533;83;21034;-81
2022/04/15 03:27:03;;;;;;;11.20;10.18;;;;;;;3.82;100.00;101376.58;1680116;85;21058;-80
2022/04/15 03:29:31;;;;;;;10.75;9.75;;;;;;;3.88;100.00;101375.92;1680123;84;21026;-80
2022/04/15 03:32:00;;;;;;;10.60;9.50;;;;;;;3.97;100.00;101379.91;1697010;82;21704;-78
2022/04/15 03:34:28;;;;;;;10.75;9.75;;;;;;;4.03;100.00;101380.14;1712600;83;21234;-80
2022/04/15 03:36:58;;;;;;;11.05;9.98;;;;;;;4.08;100.00;101380.38;1712727;83;21034;-78
2022/04/15 03:39:25;;;;;;;11.20;10.10;;;;;;;4.15;100.00;101384.88;1712843;83;21508;-79
2022/04/15 03:41:53;;;;;;;10.20;9.20;;;;;;;4.21;100.00;101384.65;1712795;82;21050;-80
2022/04/15 03:44:21;;;;;;;10.70;9.70;;;;;;;4.29;100.00;101386.11;1712899;83;21155;-81
2022/04/15 03:46:50;;;;;;;9.23;8.43;;;;;;;4.35;100.00;101384.16;1725331;81;21699;-81
2022/04/15 03:49:17;;;;;;;9.60;8.65;;;;;;;4.41;100.00;101380.48;1726963;82;21050;-79
2022/04/15 03:51:47;;;;;;;9.50;8.40;;;;;;;4.48;100.00;101387.13;1728195;82;21049;-78
2022/04/15 03:54:18;;;;;;;8.98;8.18;;;;;;;4.56;100.00;101393.27;1717805;82;21125;-83
2022/04/15 03:56:48;;;;;;;8.20;7.50;;;;;;;4.63;100.00;101389.56;1738303;81;21142;-79
2022/04/15 03:59:18;;;;;;;8.15;7.42;;;;;;;4.68;100.00;101389.39;1745856;81;22153;-79
2022/04/15 04:01:46;;;;;;;7.58;6.87;;;;;;;4.73;100.00;101393.91;1744830;81;21570;-78
2022/04/15 04:04:13;;;;;;;8.03;7.33;;;;;;;4.79;100.00;101392.84;1745196;82;20986;-79
2022/04/15 04:06:42;;;;;;;7.87;7.17;;;;;;;4.83;100.00;101395.25;1745089;82;21037;-78
2022/04/15 04:09:11;;;;;;;7.95;7.25;;;;;;;4.87;100.00;101390.38;1737630;82;21062;-78
2022/04/15 04:11:40;;;;;;;8.95;8.15;;;;;;;4.91;100.00;101389.80;1733322;81;21046;-82
2022/04/15 04:14:11;;;;;;;8.25;7.53;;;;;;;4.96;100.00;101391.74;1721220;82;21546;-80
2022/04/15 04:16:39;;;;;;;8.28;7.58;;;;;;;5.00;100.00;101395.05;1710268;82;21010;-78
2022/04/15 04:19:07;;;;;;;9.13;8.33;;;;;;;5.03;100.00;101390.59;1722779;81;21045;-79
2022/04/15 04:21:36;;;;;;;9.23;8.38;;;;;;;5.07;100.00;101391.31;1705047;82;21020;-79
2022/04/15 04:24:05;;;;;;;8.73;7.95;;;;;;;5.14;100.00;101393.22;1705038;82;21140;-78
2022/04/15 04:26:33;;;;;;;9.25;8.45;;;;;;;5.21;100.00;101397.23;1728353;82;21103;-79
2022/04/15 04:29:01;;;;;;;8.48;7.67;;;;;;;5.29;100.00;101397.77;1705084;82;20990;-80
2022/04/15 04:31:28;;;;;;;10.93;9.80;;;;;;;5.36;100.00;101399.66;1705232;82;21039;-80
2022/04/15 04:33:59;;;;;;;10.00;9.00;;;;;;;5.45;100.00;101407.47;1714578;81;21587;-80
2022/04/15 04:36:27;;;;;;;10.13;8.63;;;;;;;5.54;100.00;101405.80;1717785;81;22753;-79
2022/04/15 04:38:57;;;;;;;10.90;9.43;;;;;;;5.65;100.00;101407.47;1689072;82;21183;-81
2022/04/15 04:41:26;;;;;;;10.40;9.40;;;;;;;5.81;100.00;101405.53;1670793;84;21060;-79
2022/04/15 04:43:54;;;;;;;12.43;10.32;;;;;;;5.94;100.00;101404.13;1666388;84;21162;-80
2022/04/15 04:46:22;;;;;;;12.43;10.58;;;;;;;6.09;100.00;101404.39;1666510;84;22104;-80
2022/04/15 04:48:50;;;;;;;13.35;11.97;;;;;;;6.23;100.00;101402.50;1670170;84;21659;-80
2022/04/15 04:51:17;;;;;;;12.47;11.15;;;;;;;6.34;100.00;101412.36;1694868;83;21061;-82
2022/04/15 04:53:48;;;;;;;14.58;11.43;;;;;;;6.47;100.00;101406.58;1674796;84;21026;-82
2022/04/15 04:56:16;;;;;;;12.00;10.80;;;;;;;6.61;100.00;101402.52;1642812;84;21093;-80
2022/04/15 04:58:44;;;;;;;16.32;12.20;;;;;;;6.74;100.00;101406.67;1642831;85;21626;-80
2022/04/15 05:01:11;;;;;;;12.73;11.30;;;;;;;6.82;100.00;101405.86;1681930;84;21139;-80
2022/04/15 05:03:39;;;;;;;12.58;11.22;;;;;;;6.90;100.00;101402.46;1651220;85;21068;-80
2022/04/15 05:06:08;;;;;;;16.27;12.50;;;;;;;7.01;100.00;101405.83;1669048;84;21044;-80
2022/04/15 05:08:38;;;;;;;13.13;11.70;;;;;;;7.14;100.00;101408.68;1671830;83;21603;-79
2022/04/15 05:11:06;;;;;;;12.37;11.18;;;;;;;7.26;100.00;101404.19;1714555;82;21106;-78
2022/04/15 05:13:34;;;;;;;14.28;12.13;;;;;;;7.36;100.00;101404.60;1748957;81;21156;-79
2022/04/15 05:16:05;;;;;;;12.55;11.03;;;;;;;7.46;100.00;101410.16;1740926;81;48763;-79
2022/04/15 05:18:34;;;;;;;14.43;12.47;;;;;;;7.58;100.00;101406.95;1740475;81;21098;-80
2022/04/15 05:21:05;;;;;;;13.43;11.10;;;;;;;7.70;100.00;101406.78;1752321;79;21006;-81
2022/04/15 05:23:34;;;;;;;13.55;11.30;;;;;;;7.79;100.00;101400.31;1756516;80;21086;-81
2022/04/15 05:26:01;;;;;;;13.30;11.88;;;;;;;7.90;100.00;101409.66;1739971;81;21141;-79
2022/04/15 05:28:31;;;;;;;11.85;10.65;;;;;;;8.08;100.00;101410.11;1768778;80;21036;-80
2022/04/15 05:30:59;;;;;;;12.73;11.43;;;;;;;8.24;100.00;101409.69;1768506;80;21055;-80
2022/04/15 05:33:27;;;;;;;14.35;12.28;;;;;;;8.46;100.00;101408.55;1768665;81;21066;-79
2022/04/15 05:35:55;;;;;;;13.03;11.63;;;;;;;8.62;100.00;101414.62;1768325;80;20987;-80
2022/04/15 05:38:23;;;;;;;17.35;13.75;;;;;;;8.79;100.00;101411.56;1768584;81;21175;-79
2022/04/15 05:40:51;;;;;;;14.73;12.23;;;;;;;8.96;100.00;101410.63;1768344;80;21481;-78
2022/04/15 05:43:19;;;;;;;13.32;11.57;;;;;;;9.07;100.00;101414.77;1768854;81;21059;-79
2022/04/15 05:45:48;;;;;;;14.38;11.73;;;;;;;9.15;100.00;101416.92;1768457;80;21493;-78
2022/04/15 05:48:17;;;;;;;11.38;9.88;;;;;;;9.19;100.00;101416.28;1768951;81;21498;-79
2022/04/15 05:50:45;;;;;;;10.82;8.93;;;;;;;9.19;100.00;101416.28;1768579;81;21171;-80
2022/04/15 05:53:14;;;;;;;12.70;9.20;;;;;;;9.10;100.00;101411.16;1759134;80;21671;-79
2022/04/15 05:55:44;;;;;;;13.03;8.78;;;;;;;9.04;100.00;101414.93;1770868;80;21002;-82
2022/04/15 05:58:15;;;;;;;11.00;8.65;;;;;;;9.00;100.00;101414.27;1766847;80;21688;-80
2022/04/15 06:00:46;;;;;;;10.43;9.25;;;;;;;8.99;100.00;101418.25;1743280;80;21056;-79
2022/04/15 06:03:18;;;;;;;9.65;8.15;;;;;;;8.97;100.00;101419.62;1780545;79;21970;-80
2022/04/15 06:05:48;;;;;;;10.55;9.00;;;;;;;8.98;100.00;101420.47;1740587;81;21134;-80
2022/04/15 06:08:16;;;;;;;10.68;9.45;;;;;;;9.00;100.00;101422.06;1740054;81;21106;-80
2022/04/15 06:10:45;;;;;;;9.05;8.20;;;;;;;9.02;100.00;101424.56;1755454;79;21077;-81
2022/04/15 06:13:29;;;;;;;11.73;8.90;;;;;;;9.02;100.00;101420.66;1742661;79;21085;-80
2022/04/15 06:16:08;;;;;;;9.20;8.23;;;;;;;9.03;100.00;101422.34;1728390;82;21032;-80
2022/04/15 06:18:39;;;;;;;10.58;8.55;;;;;;;8.98;100.00;101423.89;1696357;82;21011;-80
2022/04/15 06:21:10;;;;;;;10.18;9.15;;;;;;;8.96;100.00;101424.91;1718479;81;21042;-79
2022/04/15 06:23:39;;;;;;;10.55;8.88;;;;;;;8.93;100.00;101422.50;1742885;80;21033;-79
2022/04/15 06:26:07;;;;;;;9.38;8.38;;;;;;;8.91;100.00;101421.73;1724778;81;21119;-79
2022/04/15 06:28:36;;;;;;;10.48;8.78;;;;;;;8.91;100.00;101424.34;1747821;80;21598;-81
2022/04/15 06:31:03;;;;;;;9.80;8.80;;;;;;;8.91;100.00;101425.16;1724774;82;21099;-81
2022/04/15 06:33:37;;;;;;;9.80;8.78;;;;;;;8.92;100.00;101424.72;1750063;80;21532;-79
2022/04/15 06:36:08;;;;;;;9.40;8.48;;;;;;;8.94;100.00;101418.95;1695947;80;21492;-79
2022/04/15 06:38:36;;;;;;;10.20;8.48;;;;;;;8.99;100.00;101423.45;1746579;82;21033;-79
2022/04/15 06:41:15;;;;;;;8.45;7.28;;;;;;;9.04;100.00;101414.93;1739957;80;21177;-80
2022/04/15 06:43:44;;;;;;;11.03;8.63;;;;;;;9.11;100.00;101422.75;1735974;81;21020;-81
2022/04/15 06:46:13;;;;;;;9.03;7.95;;;;;;;9.14;100.00;101416.55;1732991;80;21024;-80
2022/04/15 06:48:43;;;;;;;10.13;8.90;;;;;;;9.14;100.00;101421.30;1740572;80;21494;-81
2022/04/15 06:51:10;;;;;;;10.75;8.60;;;;;;;9.15;100.00;101420.37;1739576;80;21050;-79
2022/04/15 06:53:38;;;;;;;10.03;8.53;;;;;;;9.20;100.00;101417.96;1740159;80;21505;-80
2022/04/15 06:56:10;;;;;;;9.00;7.95;;;;;;;9.27;100.00;101417.98;1758938;79;21078;-79
2022/04/15 06:58:41;;;;;;;11.47;9.10;;;;;;;9.33;100.00;101418.11;1758386;80;21042;-81
2022/04/15 07:01:08;;;;;;;;;;;;;;;9.41;100.00;101415.91;1720882;81;21379;-82
2022/04/15 07:03:36;;;;;;;13.62;9.50;;;;;;;9.47;100.00;101417.70;1717454;82;20188;-81
2022/04/15 07:06:04;;;;;;;13.05;10.45;;;;;;;9.55;100.00;101421.62;1721087;82;21043;-80
2022/04/15 07:08:31;;;;;;;12.78;9.90;;;;;;;9.63;100.00;101418.11;1750886;80;21053;-79
2022/04/15 07:10:59;;;;;;;11.38;10.20;;;;;;;9.70;100.00;101424.63;1750718;80;21776;-80
2022/04/15 07:13:26;;;;;;;10.78;9.18;;;;;;;9.77;100.00;101419.91;1736676;81;21046;-80
2022/04/15 07:15:57;;;;;;;11.43;10.23;;;;;;;9.84;100.00;101420.36;1728739;82;21633;-80
2022/04/15 07:18:25;;;;;;;12.00;10.53;;;;;;;9.91;100.00;101425.12;1688943;84;21294;-79
2022/04/15 07:20:54;;;;;;;11.22;10.08;;;;;;;10.01;100.00;101429.30;1731800;81;21107;-80
2022/04/15 07:23:21;;;;;;;12.73;10.98;;;;;;;10.16;100.00;101434.52;1726221;81;21014;-80
2022/04/15 07:25:50;;;;;;;12.78;10.82;;;;;;;10.21;100.00;101432.02;1707577;81;21402;-82
2022/04/15 07:28:17;;;;;;;13.25;11.12;;;;;;;10.29;100.00;101428.11;1705015;83;21003;-80
2022/04/15 07:30:45;;;;;;;14.53;11.48;;;;;;;10.37;100.00;101425.45;1727349;81;21147;-82
2022/04/15 07:33:16;;;;;;;10.65;9.43;;;;;;;10.48;100.00;101427.84;1730143;82;21038;-81
2022/04/15 07:35:45;;;;;;;12.05;9.58;;;;;;;10.58;100.00;101424.56;1722767;82;21129;-81
2022/04/15 07:38:15;;;;;;;12.90;9.80;;;;;;;10.71;100.00;101434.23;1720797;82;21028;-81
2022/04/15 07:40:43;;;;;;;12.98;9.83;;;;;;;10.85;100.00;101427.68;1721540;83;21058;-80
2022/04/15 07:43:12;;;;;;;12.30;9.68;;;;;;;10.98;100.00;101429.04;1720842;83;21131;-81
2022/04/15 07:45:46;;;;;;;12.97;10.80;;;;;;;11.11;100.00;101430.39;1721322;83;21043;-80
2022/04/15 07:48:13;;;;;;;13.55;10.58;;;;;;;11.22;100.00;101428.88;1720835;83;21051;-80
2022/04/15 07:50:42;;;;;;;16.30;10.48;;;;;;;11.33;100.00;101425.94;1721090;83;21110;-80
2022/04/15 07:53:09;;;;;;;14.28;10.38;;;;;;;11.44;100.00;101433.05;1720723;83;21074;-80
2022/04/15 07:55:36;;;;;;;11.80;9.60;;;;;;;11.52;100.00;101419.03;1721020;83;21831;-80
2022/04/15 07:58:07;;;;;;;11.83;10.25;;;;;;;11.61;100.00;101426.70;1720853;83;20953;-80
2022/04/15 08:00:36;;;;;;;12.50;10.20;;;;;;;11.61;100.00;101422.79;1721013;83;21066;-81
2022/04/15 08:03:05;;;;;;;12.15;10.05;;;;;;;11.62;100.00;101427.52;1720825;83;21027;-81
2022/04/15 08:05:32;;;;;;;10.70;9.38;;;;;;;11.61;100.00;101417.58;1717764;83;21614;-82
2022/04/15 08:07:59;;;;;;;11.48;10.18;;;;;;;11.66;100.00;101422.48;1722725;81;21764;-83
2022/04/15 08:10:26;;;;;;;12.63;8.93;;;;;;;11.73;100.00;101417.70;1731755;81;21021;-83
2022/04/15 08:12:54;;;;;;;9.68;8.68;;;;;;;11.80;100.00;101418.95;1732268;81;21080;-81
2022/04/15 08:15:23;;;;;;;10.60;8.58;;;;;;;11.90;100.00;101416.06;1732742;81;21029;-81
2022/04/15 08:17:51;;;;;;;9.83;8.70;;;;;;;12.02;100.00;101418.83;1735617;81;21043;-83
2022/04/15 08:20:18;;;;;;;11.93;8.35;;;;;;;12.11;100.00;101409.06;1736141;81;21223;-81
2022/04/15 08:22:46;;;;;;;9.63;8.28;;;;;;;12.19;100.00;101403.29;1732936;81;21346;-80
2022/04/15 08:25:14;;;;;;;10.80;9.50;;;;;;;12.25;100.00;101401.09;1715426;82;21014;-80
2022/04/15 08:27:48;;;;;;;10.58;9.45;;;;;;;12.33;100.00;101401.88;1714249;82;21068;-81
2022/04/15 08:30:16;;;;;;;11.03;9.00;;;;;;;12.37;100.00;101403.80;1717315;83;21098;-79
2022/04/15 08:32:45;;;;;;;10.10;8.83;;;;;;;12.49;100.00;101405.54;1729351;81;21121;-81
2022/04/15 08:35:12;;;;;;;12.28;9.93;;;;;;;12.59;100.00;101401.34;1733863;81;21030;-83
2022/04/15 08:37:40;;;;;;;11.10;9.93;;;;;;;12.70;100.00;101404.48;1730625;81;22088;-83
2022/04/15 08:40:09;;;;;;;13.22;9.85;;;;;;;12.78;100.00;101398.69;1725989;81;21127;-83
2022/04/15 08:42:39;;;;;;;13.60;11.48;;;;;;;12.89;100.00;101396.63;1730396;81;21140;-81
2022/04/15 08:45:08;;;;;;;13.05;11.18;;;;;;;13.00;100.00;101393.23;1715878;82;21167;-81
2022/04/15 08:47:40;;;;;;;13.22;11.05;;;;;;;13.05;100.00;101397.19;1731725;81;21059;-82
2022/04/15 08:50:13;;;;;;;11.78;10.63;;;;;;;13.09;100.00;101390.77;1735570;81;21090;-80
2022/04/15 08:52:41;;;;;;;13.30;10.68;;;;;;;13.17;100.00;101391.53;1734309;81;22217;-80
2022/04/15 08:55:09;;;;;;;12.53;10.45;;;;;;;13.20;100.00;101388.67;1728841;82;21089;-81
2022/04/15 08:57:36;;;;;;;9.98;8.98;;;;;;;13.24;100.00;101388.81;1728564;81;21887;-84
2022/04/15 09:00:05;;;;;;;11.97;10.65;;;;;;;13.28;100.00;101389.87;1725123;81;21089;-84
2022/04/15 09:02:37;;;;;;;9.90;8.90;;;;;;;13.31;100.00;101386.55;1720444;82;21094;-80
2022/04/15 09:05:06;;;;;;;11.88;8.95;;;;;;;13.38;100.00;101391.72;1736392;81;21069;-80
2022/04/15 09:07:36;;;;;;;19.85;16.20;;;;;;;13.48;100.00;101389.27;1719910;82;21110;-80
2022/04/15 09:10:07;;;;;;;18.10;13.78;;;;;;;13.52;100.00;101380.22;1726257;80;22445;-86
2022/04/15 09:12:35;;;;;;;15.63;11.63;;;;;;;13.55;100.00;101384.39;1733737;80;21104;-82
2022/04/15 09:15:14;;;;;;;16.35;12.58;;;;;;;13.55;100.00;101381.31;1764787;80;21022;-81
2022/04/15 09:17:52;;;;;;;13.15;11.33;;;;;;;13.62;100.00;101374.30;1751987;80;21062;-82
2022/04/15 09:20:23;;;;;;;11.93;10.70;;;;;;;13.73;100.00;101376.95;1764315;79;21050;-83
2022/04/15 09:22:56;;;;;;;15.88;11.90;;;;;;;13.83;100.00;101372.65;1776719;79;21106;-81
2022/04/15 09:25:28;;;;;;;17.30;13.08;;;;;;;13.88;100.00;101367.91;1761431;80;21123;-81
2022/04/15 09:27:57;;;;;;;17.00;15.23;;;;;;;13.92;100.00;101370.27;1752881;81;21042;-80
2022/04/15 09:30:36;;;;;;;15.95;13.50;;;;;;;13.96;100.00;101368.61;1771721;80;21012;-80
2022/04/15 09:33:04;;;;;;;23.60;19.75;;;;;;;14.02;100.00;101368.61;1741103;81;21192;-82
2022/04/15 09:35:31;;;;;;;21.52;18.75;;;;;;;14.03;100.00;101372.41;1755944;80;21151;-80
2022/04/15 09:38:03;;;;;;;18.67;16.70;;;;;;;13.99;100.00;101370.15;1765570;80;21065;-81
2022/04/15 09:40:37;;;;;;;18.45;15.50;;;;;;;13.92;100.00;101374.20;1769789;80;21595;-81
2022/04/15 09:43:06;;;;;;;24.45;21.80;;;;;;;13.82;100.00;101365.74;1715343;82;21116;-81
2022/04/15 09:45:37;;;;;;;31.23;25.12;;;;;;;13.70;100.00;101364.08;1770309;80;21040;-80
2022/04/15 09:48:09;;;;;;;22.42;19.48;;;;;;;13.60;100.00;101364.41;1755058;80;22014;-79
2022/04/15 09:50:46;;;;;;;21.45;19.15;;;;;;;13.58;100.00;101357.18;1752895;80;21089;-79
2022/04/15 09:53:20;;;;;;;24.77;19.32;;;;;;;13.67;100.00;101355.99;1774245;80;21011;-82
2022/04/15 09:55:52;;;;;;;25.17;19.10;;;;;;;13.88;100.00;101353.51;1756017;80;21164;-82
2022/04/15 09:58:32;;;;;;;25.25;19.80;;;;;;;14.14;100.00;101348.48;1752755;80;21504;-80
2022/04/15 10:00:58;;;;;;;24.57;20.10;;;;;;;14.37;100.00;101342.75;1765345;80;21169;-81
2022/04/15 10:03:28;;;;;;;24.52;19.92;;;;;;;14.61;100.00;101342.55;1757162;80;21667;-80
2022/04/15 10:05:58;;;;;;;28.17;20.27;;;;;;;14.83;100.00;101344.30;1764168;79;21021;-80
2022/04/15 10:08:27;;;;;;;22.85;18.87;;;;;;;15.08;100.00;101338.81;1722163;80;21135;-80
2022/04/15 10:10:56;;;;;;;22.70;18.35;;;;;;;15.26;100.00;101336.47;1765969;81;21100;-81
2022/04/15 10:13:30;;;;;;;23.07;19.00;;;;;;;15.32;100.00;101335.09;1750027;79;21043;-80
2022/04/15 10:15:57;;;;;;;25.30;20.00;;;;;;;15.30;100.00;101334.74;1768345;80;21020;-81
2022/04/15 10:18:28;;;;;;;25.32;19.92;;;;;;;15.26;100.00;101332.53;1765278;79;21129;-80
2022/04/15 10:21:03;;;;;;;29.10;22.95;;;;;;;15.31;100.00;101330.34;1769711;80;21078;-80
2022/04/15 10:23:27;;;;;;;27.77;21.82;;;;;;;15.43;100.00;101331.92;1767138;80;21082;-82
2022/04/15 10:25:59;;;;;;;26.75;20.55;;;;;;;15.59;100.00;101327.98;1771215;80;21120;-81
2022/04/15 10:28:45;;;;;;;29.12;22.00;;;;;;;15.72;100.00;101320.75;1773918;80;21024;-81
2022/04/15 10:31:20;;;;;;;25.88;21.87;;;;;;;15.77;100.00;101321.67;1769876;80;21576;-80
2022/04/15 10:33:49;;;;;;;26.48;21.90;;;;;;;15.82;100.00;101325.21;1746984;81;21031;-80
2022/04/15 10:36:23;;;;;;;24.52;21.07;;;;;;;15.95;100.00;101320.58;1759875;81;20947;-80
2022/04/15 10:39:07;;;;;;;26.12;22.05;;;;;;;16.09;100.00;101321.52;1754662;81;21951;-81
2022/04/15 10:41:53;;;;;;;26.80;22.27;;;;;;;16.23;100.00;101320.31;1752096;81;21150;-80
2022/04/15 10:44:37;;;;;;;28.80;22.58;;;;;;;16.33;100.00;101321.63;1751571;81;21065;-81
2022/04/15 10:47:22;;;;;;;23.92;21.27;;;;;;;16.42;100.00;101323.09;1771697;80;21058;-80
2022/04/15 10:50:03;;;;;;;30.00;23.47;;;;;;;16.34;100.00;101312.78;1747554;81;21138;-80
2022/04/15 10:52:35;;;;;;;30.32;24.70;;;;;;;16.33;100.00;101311.62;1675435;83;21080;-83
2022/04/15 10:55:10;;;;;;;34.60;24.72;;;;;;;16.37;100.00;101303.33;1728490;80;21010;-80
2022/04/15 10:57:41;;;;;;;32.30;25.72;;;;;;;16.31;100.00;101313.05;1703936;82;21100;-80
2022/04/15 11:03:26;;;;;;;32.88;27.73;;;;;;;16.23;100.00;101311.11;1756145;80;21047;-80
2022/04/15 11:05:59;;;;;;;34.78;28.57;;;;;;;16.29;100.00;101306.27;1758046;81;21500;-79
2022/04/15 11:08:27;;;;;;;;;;;;;;;16.35;100.00;101302.63;1762066;80;21051;-78
2022/04/15 11:11:03;;;;;;;30.37;24.87;;;;;;;16.42;100.00;101298.13;1764466;80;20196;-78
2022/04/15 11:13:49;;;;;;;34.85;29.45;;;;;;;16.43;100.00;101300.61;1744901;81;21189;-80
2022/04/15 11:16:22;;;;;;;33.85;28.35;;;;;;;16.35;100.00;101296.52;1714867;81;21062;-82
2022/04/15 11:18:57;;;;;;;33.10;26.93;;;;;;;16.17;100.00;101298.99;1720868;81;21082;-83
2022/04/15 11:21:36;;;;;;;30.27;25.92;;;;;;;15.96;100.00;101300.39;1720136;82;21009;-82
2022/04/15 11:24:10;;;;;;;35.08;27.85;;;;;;;15.86;100.00;101299.05;1707040;82;21579;-83
2022/04/15 11:26:42;;;;;;;28.32;25.25;;;;;;;15.82;100.00;101297.64;1724010;80;21531;-82